sensor_id;sensor_type;location;lat;lon;timestamp;temperature;humidity
23731;DHT22;12046;44.702;10.622;2022-08-18T00:01:09;22.80;99.90
23731;DHT22;12046;44.702;10.622;2022-08-18T00:03:35;22.80;99.90
23731;DHT22;12046;44.702;10.622;2022-08-18T00:06:01;22.80;99.90
23731;DHT22;12046;44.702;10.622;2022-08-18T00:08:27;22.80;99.90
23731;DHT22;12046;44.702;10.622;2022-08-18T00:10:54;22.70;99.90
23731;DHT22;12046;44.702;10.622;2022-08-18T00:13:20;22.70;99.90
23731;DHT22;12046;44.702;10.622;2022-08-18T00:15:46;22.70;99.90
23731;DHT22;12046;44.702;10.622;2022-08-18T00:18:12;22.70;99.90
23731;DHT22;12046;44.702;10.622;2022-08-18T00:20:39;22.70;99.90
23731;DHT22;12046;44.702;10.622;2022-08-18T00:23:05;22.70;99.90
23731;DHT22;12046;44.702;10.622;2022-08-18T00:25:32;22.70;99.90
23731;DHT22;12046;44.702;10.622;2022-08-18T00:27:58;22.70;99.90
23731;DHT22;12046;44.702;10.622;2022-08-18T00:30:24;22.60;99.90
23731;DHT22;12046;44.702;10.622;2022-08-18T00:32:52;22.70;99.90
23731;DHT22;12046;44.702;10.622;2022-08-18T00:35:31;22.70;99.90
23731;DHT22;12046;44.702;10.622;2022-08-18T00:38:00;22.70;99.90
23731;DHT22;12046;44.702;10.622;2022-08-18T00:40:31;22.70;99.90
23731;DHT22;12046;44.702;10.622;2022-08-18T00:43:00;22.60;99.90
23731;DHT22;12046;44.702;10.622;2022-08-18T00:45:44;22.70;99.90
23731;DHT22;12046;44.702;10.622;2022-08-18T00:48:12;22.60;99.90
23731;DHT22;12046;44.702;10.622;2022-08-18T00:50:43;22.60;99.90
23731;DHT22;12046;44.702;10.622;2022-08-18T00:55:49;22.60;99.90
23731;DHT22;12046;44.702;10.622;2022-08-18T00:58:20;22.60;99.90
23731;DHT22;12046;44.702;10.622;2022-08-18T01:00:48;22.60;99.90
23731;DHT22;12046;44.702;10.622;2022-08-18T01:03:17;22.60;99.90
23731;DHT22;12046;44.702;10.622;2022-08-18T01:08:19;22.60;99.90
23731;DHT22;12046;44.702;10.622;2022-08-18T01:10:45;22.60;99.90
23731;DHT22;12046;44.702;10.622;2022-08-18T01:13:11;22.50;99.90
23731;DHT22;12046;44.702;10.622;2022-08-18T01:15:37;22.50;99.90
23731;DHT22;12046;44.702;10.622;2022-08-18T01:18:08;22.50;99.90
23731;DHT22;12046;44.702;10.622;2022-08-18T01:21:07;22.50;99.90
23731;DHT22;12046;44.702;10.622;2022-08-18T01:23:55;22.50;99.90
23731;DHT22;12046;44.702;10.622;2022-08-18T01:26:23;22.50;99.90
23731;DHT22;12046;44.702;10.622;2022-08-18T01:28:50;22.50;99.90
23731;DHT22;12046;44.702;10.622;2022-08-18T01:31:33;22.50;99.90
23731;DHT22;12046;44.702;10.622;2022-08-18T01:34:04;22.50;99.90
23731;DHT22;12046;44.702;10.622;2022-08-18T01:36:32;22.50;99.90
23731;DHT22;12046;44.702;10.622;2022-08-18T01:39:02;22.50;99.90
23731;DHT22;12046;44.702;10.622;2022-08-18T01:41:28;22.50;99.90
23731;DHT22;12046;44.702;10.622;2022-08-18T01:43:56;22.50;99.90
23731;DHT22;12046;44.702;10.622;2022-08-18T01:46:23;22.40;99.90
23731;DHT22;12046;44.702;10.622;2022-08-18T01:48:50;22.40;99.90
23731;DHT22;12046;44.702;10.622;2022-08-18T01:51:16;22.30;99.90
23731;DHT22;12046;44.702;10.622;2022-08-18T01:53:44;22.30;99.90
23731;DHT22;12046;44.702;10.622;2022-08-18T01:56:11;22.20;99.90
23731;DHT22;12046;44.702;10.622;2022-08-18T01:58:43;22.20;99.90
23731;DHT22;12046;44.702;10.622;2022-08-18T02:01:09;22.20;99.90
23731;DHT22;12046;44.702;10.622;2022-08-18T02:03:39;22.20;99.90
23731;DHT22;12046;44.702;10.622;2022-08-18T02:06:09;22.20;99.90
23731;DHT22;12046;44.702;10.622;2022-08-18T02:08:36;22.10;99.90
23731;DHT22;12046;44.702;10.622;2022-08-18T02:11:03;22.10;99.90
23731;DHT22;12046;44.702;10.622;2022-08-18T02:13:29;22.00;99.90
23731;DHT22;12046;44.702;10.622;2022-08-18T02:15:55;21.90;99.90
23731;DHT22;12046;44.702;10.622;2022-08-18T02:18:25;21.70;99.90
23731;DHT22;12046;44.702;10.622;2022-08-18T02:20:53;21.60;99.90
23731;DHT22;12046;44.702;10.622;2022-08-18T02:23:19;21.40;99.90
23731;DHT22;12046;44.702;10.622;2022-08-18T02:25:45;21.10;99.90
23731;DHT22;12046;44.702;10.622;2022-08-18T02:28:11;20.90;99.90
23731;DHT22;12046;44.702;10.622;2022-08-18T02:30:38;20.80;99.90
23731;DHT22;12046;44.702;10.622;2022-08-18T02:33:08;20.80;99.90
23731;DHT22;12046;44.702;10.622;2022-08-18T02:35:36;20.90;99.90
23731;DHT22;12046;44.702;10.622;2022-08-18T02:38:06;20.90;99.90
23731;DHT22;12046;44.702;10.622;2022-08-18T02:40:35;21.00;99.90
23731;DHT22;12046;44.702;10.622;2022-08-18T02:43:07;21.00;99.90
23731;DHT22;12046;44.702;10.622;2022-08-18T02:45:37;20.90;99.90
23731;DHT22;12046;44.702;10.622;2022-08-18T02:48:05;20.90;99.90
23731;DHT22;12046;44.702;10.622;2022-08-18T02:50:31;20.90;99.90
23731;DHT22;12046;44.702;10.622;2022-08-18T02:53:00;20.90;99.90
23731;DHT22;12046;44.702;10.622;2022-08-18T02:55:26;21.00;99.90
23731;DHT22;12046;44.702;10.622;2022-08-18T02:57:53;21.00;99.90
23731;DHT22;12046;44.702;10.622;2022-08-18T03:00:19;21.00;99.90
23731;DHT22;12046;44.702;10.622;2022-08-18T03:02:50;21.10;99.90
23731;DHT22;12046;44.702;10.622;2022-08-18T03:05:16;21.10;99.90
23731;DHT22;12046;44.702;10.622;2022-08-18T03:07:43;21.10;99.90
23731;DHT22;12046;44.702;10.622;2022-08-18T03:10:09;21.00;99.90
23731;DHT22;12046;44.702;10.622;2022-08-18T03:12:35;21.00;99.90
23731;DHT22;12046;44.702;10.622;2022-08-18T03:15:02;21.00;99.90
23731;DHT22;12046;44.702;10.622;2022-08-18T03:17:28;20.90;99.90
23731;DHT22;12046;44.702;10.622;2022-08-18T03:19:54;20.90;99.90
23731;DHT22;12046;44.702;10.622;2022-08-18T03:22:20;20.90;99.90
23731;DHT22;12046;44.702;10.622;2022-08-18T03:24:46;20.90;99.90
23731;DHT22;12046;44.702;10.622;2022-08-18T03:27:12;20.90;99.90
23731;DHT22;12046;44.702;10.622;2022-08-18T03:29:38;20.90;99.90
23731;DHT22;12046;44.702;10.622;2022-08-18T03:32:06;20.80;99.90
23731;DHT22;12046;44.702;10.622;2022-08-18T03:34:32;20.70;99.90
23731;DHT22;12046;44.702;10.622;2022-08-18T03:36:58;20.70;99.90
23731;DHT22;12046;44.702;10.622;2022-08-18T03:39:25;20.60;99.90
23731;DHT22;12046;44.702;10.622;2022-08-18T03:41:52;20.70;99.90
23731;DHT22;12046;44.702;10.622;2022-08-18T03:44:20;20.70;99.90
23731;DHT22;12046;44.702;10.622;2022-08-18T03:46:47;20.60;99.90
23731;DHT22;12046;44.702;10.622;2022-08-18T03:49:13;20.50;99.90
23731;DHT22;12046;44.702;10.622;2022-08-18T03:51:41;20.50;99.90
23731;DHT22;12046;44.702;10.622;2022-08-18T03:54:16;20.50;99.90
23731;DHT22;12046;44.702;10.622;2022-08-18T03:56:43;20.40;99.90
23731;DHT22;12046;44.702;10.622;2022-08-18T03:59:13;20.40;99.90
23731;DHT22;12046;44.702;10.622;2022-08-18T04:01:42;20.30;99.90
23731;DHT22;12046;44.702;10.622;2022-08-18T04:04:11;20.30;99.90
23731;DHT22;12046;44.702;10.622;2022-08-18T04:06:43;20.30;99.90
23731;DHT22;12046;44.702;10.622;2022-08-18T04:09:12;20.30;99.90
23731;DHT22;12046;44.702;10.622;2022-08-18T04:11:39;20.30;99.90
23731;DHT22;12046;44.702;10.622;2022-08-18T04:14:09;20.20;99.90
23731;DHT22;12046;44.702;10.622;2022-08-18T04:16:36;20.20;99.90
23731;DHT22;12046;44.702;10.622;2022-08-18T04:19:03;20.20;99.90
23731;DHT22;12046;44.702;10.622;2022-08-18T04:21:32;20.20;99.90
23731;DHT22;12046;44.702;10.622;2022-08-18T04:23:59;20.20;99.90
23731;DHT22;12046;44.702;10.622;2022-08-18T04:26:44;20.30;99.90
23731;DHT22;12046;44.702;10.622;2022-08-18T04:29:13;20.30;99.90
23731;DHT22;12046;44.702;10.622;2022-08-18T04:31:39;20.30;99.90
23731;DHT22;12046;44.702;10.622;2022-08-18T04:34:05;20.30;99.90
23731;DHT22;12046;44.702;10.622;2022-08-18T04:36:33;20.40;99.90
23731;DHT22;12046;44.702;10.622;2022-08-18T04:39:00;20.40;99.90
23731;DHT22;12046;44.702;10.622;2022-08-18T04:41:27;20.40;99.90
23731;DHT22;12046;44.702;10.622;2022-08-18T04:43:59;20.40;99.90
23731;DHT22;12046;44.702;10.622;2022-08-18T04:46:28;20.50;99.90
23731;DHT22;12046;44.702;10.622;2022-08-18T04:48:56;20.60;99.90
23731;DHT22;12046;44.702;10.622;2022-08-18T04:51:27;20.60;99.90
23731;DHT22;12046;44.702;10.622;2022-08-18T04:53:54;20.60;99.90
23731;DHT22;12046;44.702;10.622;2022-08-18T04:56:25;20.70;99.90
23731;DHT22;12046;44.702;10.622;2022-08-18T04:59:09;20.70;99.90
23731;DHT22;12046;44.702;10.622;2022-08-18T05:01:38;20.90;99.90
23731;DHT22;12046;44.702;10.622;2022-08-18T05:04:04;20.90;99.90
23731;DHT22;12046;44.702;10.622;2022-08-18T05:06:31;21.00;99.90
23731;DHT22;12046;44.702;10.622;2022-08-18T05:09:01;21.00;99.90
23731;DHT22;12046;44.702;10.622;2022-08-18T05:11:29;21.10;99.90
23731;DHT22;12046;44.702;10.622;2022-08-18T05:14:04;21.20;99.90
23731;DHT22;12046;44.702;10.622;2022-08-18T05:16:31;21.30;99.90
23731;DHT22;12046;44.702;10.622;2022-08-18T05:19:07;21.30;99.90
23731;DHT22;12046;44.702;10.622;2022-08-18T05:21:34;21.40;99.90
23731;DHT22;12046;44.702;10.622;2022-08-18T05:24:02;21.40;99.90
23731;DHT22;12046;44.702;10.622;2022-08-18T05:26:28;21.40;99.90
23731;DHT22;12046;44.702;10.622;2022-08-18T05:28:54;21.40;99.90
23731;DHT22;12046;44.702;10.622;2022-08-18T05:31:24;21.40;99.90
23731;DHT22;12046;44.702;10.622;2022-08-18T05:33:51;21.50;99.90
23731;DHT22;12046;44.702;10.622;2022-08-18T05:39:19;21.60;99.90
23731;DHT22;12046;44.702;10.622;2022-08-18T05:44:41;21.70;99.90
23731;DHT22;12046;44.702;10.622;2022-08-18T05:49:47;21.70;99.90
23731;DHT22;12046;44.702;10.622;2022-08-18T05:55:11;21.90;99.90
23731;DHT22;12046;44.702;10.622;2022-08-18T05:58:04;21.90;99.90
23731;DHT22;12046;44.702;10.622;2022-08-18T06:00:32;21.90;99.90
23731;DHT22;12046;44.702;10.622;2022-08-18T06:03:12;21.90;99.90
23731;DHT22;12046;44.702;10.622;2022-08-18T06:05:58;21.90;99.90
23731;DHT22;12046;44.702;10.622;2022-08-18T06:08:35;21.80;99.90
23731;DHT22;12046;44.702;10.622;2022-08-18T06:11:03;21.90;99.90
23731;DHT22;12046;44.702;10.622;2022-08-18T06:13:37;21.80;99.90
23731;DHT22;12046;44.702;10.622;2022-08-18T06:16:04;21.90;99.90
23731;DHT22;12046;44.702;10.622;2022-08-18T06:23:54;21.90;99.90
23731;DHT22;12046;44.702;10.622;2022-08-18T06:26:39;21.90;99.90
23731;DHT22;12046;44.702;10.622;2022-08-18T06:29:13;21.90;99.90
23731;DHT22;12046;44.702;10.622;2022-08-18T06:37:06;21.80;99.90
23731;DHT22;12046;44.702;10.622;2022-08-18T06:39:44;21.80;99.90
23731;DHT22;12046;44.702;10.622;2022-08-18T06:42:10;21.80;99.90
23731;DHT22;12046;44.702;10.622;2022-08-18T06:44:52;21.80;99.90
23731;DHT22;12046;44.702;10.622;2022-08-18T06:50:24;21.90;99.90
23731;DHT22;12046;44.702;10.622;2022-08-18T06:52:57;21.80;99.90
23731;DHT22;12046;44.702;10.622;2022-08-18T06:55:39;21.80;99.90
23731;DHT22;12046;44.702;10.622;2022-08-18T06:58:21;21.80;99.90
23731;DHT22;12046;44.702;10.622;2022-08-18T07:03:41;21.70;99.90
23731;DHT22;12046;44.702;10.622;2022-08-18T07:08:43;21.70;99.90
23731;DHT22;12046;44.702;10.622;2022-08-18T07:11:17;21.70;99.90
23731;DHT22;12046;44.702;10.622;2022-08-18T07:13:53;21.70;99.90
23731;DHT22;12046;44.702;10.622;2022-08-18T07:16:30;21.70;99.90
23731;DHT22;12046;44.702;10.622;2022-08-18T07:19:17;21.80;99.90
23731;DHT22;12046;44.702;10.622;2022-08-18T07:22:04;21.90;99.90
23731;DHT22;12046;44.702;10.622;2022-08-18T07:24:33;21.90;99.90
23731;DHT22;12046;44.702;10.622;2022-08-18T07:29:39;21.90;99.90
23731;DHT22;12046;44.702;10.622;2022-08-18T07:32:17;21.90;99.90
23731;DHT22;12046;44.702;10.622;2022-08-18T07:34:51;22.00;99.90
23731;DHT22;12046;44.702;10.622;2022-08-18T07:37:34;22.10;99.90
23731;DHT22;12046;44.702;10.622;2022-08-18T07:42:51;22.10;99.90
23731;DHT22;12046;44.702;10.622;2022-08-18T07:45:44;22.10;99.90
23731;DHT22;12046;44.702;10.622;2022-08-18T07:48:25;22.00;99.90
23731;DHT22;12046;44.702;10.622;2022-08-18T07:53:58;21.80;99.90
23731;DHT22;12046;44.702;10.622;2022-08-18T07:59:02;21.60;99.90
23731;DHT22;12046;44.702;10.622;2022-08-18T08:01:50;21.60;99.90
23731;DHT22;12046;44.702;10.622;2022-08-18T08:04:48;21.60;99.90
23731;DHT22;12046;44.702;10.622;2022-08-18T08:07:22;21.60;99.90
23731;DHT22;12046;44.702;10.622;2022-08-18T08:10:03;21.60;99.90
23731;DHT22;12046;44.702;10.622;2022-08-18T08:12:47;21.70;99.90
23731;DHT22;12046;44.702;10.622;2022-08-18T08:15:35;21.80;99.90
23731;DHT22;12046;44.702;10.622;2022-08-18T08:21:19;21.90;99.90
23731;DHT22;12046;44.702;10.622;2022-08-18T08:23:53;22.00;99.90
23731;DHT22;12046;44.702;10.622;2022-08-18T08:26:52;22.10;99.90
23731;DHT22;12046;44.702;10.622;2022-08-18T08:34:50;22.10;99.90
23731;DHT22;12046;44.702;10.622;2022-08-18T08:39:57;21.90;99.90
23731;DHT22;12046;44.702;10.622;2022-08-18T08:42:57;21.80;99.90
23731;DHT22;12046;44.702;10.622;2022-08-18T08:45:35;21.80;99.90
23731;DHT22;12046;44.702;10.622;2022-08-18T08:50:40;21.60;99.90
23731;DHT22;12046;44.702;10.622;2022-08-18T08:53:34;21.60;99.90
23731;DHT22;12046;44.702;10.622;2022-08-18T08:56:08;21.50;99.90
23731;DHT22;12046;44.702;10.622;2022-08-18T08:58:44;21.50;99.90
23731;DHT22;12046;44.702;10.622;2022-08-18T09:23:18;20.80;99.90
23731;DHT22;12046;44.702;10.622;2022-08-18T09:28:17;20.70;99.90
23731;DHT22;12046;44.702;10.622;2022-08-18T09:38:49;19.90;99.90
23731;DHT22;12046;44.702;10.622;2022-08-18T09:41:52;19.80;99.90
23731;DHT22;12046;44.702;10.622;2022-08-18T09:47:04;19.80;99.90
23731;DHT22;12046;44.702;10.622;2022-08-18T09:49:38;19.80;99.90
23731;DHT22;12046;44.702;10.622;2022-08-18T09:55:06;20.00;99.90
23731;DHT22;12046;44.702;10.622;2022-08-18T09:57:33;20.10;99.90
23731;DHT22;12046;44.702;10.622;2022-08-18T10:15:49;20.30;99.90
23731;DHT22;12046;44.702;10.622;2022-08-18T10:18:41;20.40;99.90
23731;DHT22;12046;44.702;10.622;2022-08-18T10:21:24;20.40;99.90
23731;DHT22;12046;44.702;10.622;2022-08-18T10:34:55;20.60;99.90
23731;DHT22;12046;44.702;10.622;2022-08-18T10:37:46;20.60;99.90
23731;DHT22;12046;44.702;10.622;2022-08-18T10:40:17;20.50;99.90
23731;DHT22;12046;44.702;10.622;2022-08-18T10:42:47;20.50;99.90
23731;DHT22;12046;44.702;10.622;2022-08-18T10:45:30;20.60;99.90
23731;DHT22;12046;44.702;10.622;2022-08-18T10:48:30;20.70;99.90
23731;DHT22;12046;44.702;10.622;2022-08-18T10:59:27;21.20;99.90
23731;DHT22;12046;44.702;10.622;2022-08-18T11:06:10;21.70;99.90
23731;DHT22;12046;44.702;10.622;2022-08-18T11:08:49;21.80;99.90
23731;DHT22;12046;44.702;10.622;2022-08-18T11:11:20;21.90;99.90
23731;DHT22;12046;44.702;10.622;2022-08-18T11:18:52;22.50;99.90
23731;DHT22;12046;44.702;10.622;2022-08-18T11:26:44;23.30;99.90
23731;DHT22;12046;44.702;10.622;2022-08-18T11:29:17;23.40;99.90
23731;DHT22;12046;44.702;10.622;2022-08-18T11:34:51;23.30;99.90
23731;DHT22;12046;44.702;10.622;2022-08-18T11:39:51;23.40;99.90
23731;DHT22;12046;44.702;10.622;2022-08-18T11:42:18;23.30;99.90
23731;DHT22;12046;44.702;10.622;2022-08-18T11:44:45;23.30;99.90
23731;DHT22;12046;44.702;10.622;2022-08-18T11:47:16;23.30;99.90
23731;DHT22;12046;44.702;10.622;2022-08-18T11:50:10;23.20;99.90
23731;DHT22;12046;44.702;10.622;2022-08-18T11:52:50;23.30;99.90
23731;DHT22;12046;44.702;10.622;2022-08-18T11:55:20;23.20;99.90
23731;DHT22;12046;44.702;10.622;2022-08-18T11:57:52;23.20;99.90
23731;DHT22;12046;44.702;10.622;2022-08-18T12:05:54;23.60;99.90
23731;DHT22;12046;44.702;10.622;2022-08-18T12:10:59;23.80;99.90
23731;DHT22;12046;44.702;10.622;2022-08-18T12:13:25;23.80;99.90
23731;DHT22;12046;44.702;10.622;2022-08-18T12:16:11;23.90;99.90
23731;DHT22;12046;44.702;10.622;2022-08-18T12:18:37;24.10;99.90
23731;DHT22;12046;44.702;10.622;2022-08-18T12:21:04;24.20;99.90
23731;DHT22;12046;44.702;10.622;2022-08-18T12:23:32;24.30;99.90
23731;DHT22;12046;44.702;10.622;2022-08-18T12:25:59;24.30;99.90
23731;DHT22;12046;44.702;10.622;2022-08-18T12:28:25;24.40;99.90
23731;DHT22;12046;44.702;10.622;2022-08-18T12:30:52;24.40;99.90
23731;DHT22;12046;44.702;10.622;2022-08-18T12:33:18;24.40;99.90
23731;DHT22;12046;44.702;10.622;2022-08-18T12:35:46;24.40;99.90
23731;DHT22;12046;44.702;10.622;2022-08-18T12:38:12;24.50;99.90
23731;DHT22;12046;44.702;10.622;2022-08-18T12:40:40;24.70;99.90
23731;DHT22;12046;44.702;10.622;2022-08-18T12:43:06;25.00;99.90
23731;DHT22;12046;44.702;10.622;2022-08-18T12:45:32;25.20;99.90
23731;DHT22;12046;44.702;10.622;2022-08-18T12:47:58;25.30;99.90
23731;DHT22;12046;44.702;10.622;2022-08-18T12:50:27;25.40;99.90
23731;DHT22;12046;44.702;10.622;2022-08-18T12:52:53;25.40;99.90
23731;DHT22;12046;44.702;10.622;2022-08-18T12:55:19;25.30;99.90
23731;DHT22;12046;44.702;10.622;2022-08-18T12:57:44;25.30;99.90
23731;DHT22;12046;44.702;10.622;2022-08-18T13:00:11;25.20;99.90
23731;DHT22;12046;44.702;10.622;2022-08-18T13:02:37;25.00;99.90
23731;DHT22;12046;44.702;10.622;2022-08-18T13:05:03;24.80;99.90
23731;DHT22;12046;44.702;10.622;2022-08-18T13:07:29;24.70;99.90
23731;DHT22;12046;44.702;10.622;2022-08-18T13:09:56;24.70;99.90
23731;DHT22;12046;44.702;10.622;2022-08-18T13:12:22;24.60;99.90
23731;DHT22;12046;44.702;10.622;2022-08-18T13:14:50;24.50;99.90
23731;DHT22;12046;44.702;10.622;2022-08-18T13:17:20;24.50;99.90
23731;DHT22;12046;44.702;10.622;2022-08-18T13:19:46;24.70;99.90
23731;DHT22;12046;44.702;10.622;2022-08-18T13:22:12;24.80;99.90
23731;DHT22;12046;44.702;10.622;2022-08-18T13:24:38;24.70;99.90
23731;DHT22;12046;44.702;10.622;2022-08-18T13:27:04;24.80;99.90
23731;DHT22;12046;44.702;10.622;2022-08-18T13:29:30;25.00;99.90
23731;DHT22;12046;44.702;10.622;2022-08-18T13:31:56;25.10;99.90
23731;DHT22;12046;44.702;10.622;2022-08-18T13:34:27;25.20;99.90
23731;DHT22;12046;44.702;10.622;2022-08-18T13:36:53;25.20;99.90
23731;DHT22;12046;44.702;10.622;2022-08-18T13:39:21;25.20;99.90
23731;DHT22;12046;44.702;10.622;2022-08-18T13:41:50;25.10;99.90
23731;DHT22;12046;44.702;10.622;2022-08-18T13:44:18;25.00;99.90
23731;DHT22;12046;44.702;10.622;2022-08-18T13:46:46;24.90;99.90
23731;DHT22;12046;44.702;10.622;2022-08-18T13:49:18;24.80;99.90
23731;DHT22;12046;44.702;10.622;2022-08-18T13:51:45;24.70;99.90
23731;DHT22;12046;44.702;10.622;2022-08-18T13:54:26;24.70;99.90
23731;DHT22;12046;44.702;10.622;2022-08-18T13:56:53;24.70;99.90
23731;DHT22;12046;44.702;10.622;2022-08-18T13:59:20;24.70;99.90
23731;DHT22;12046;44.702;10.622;2022-08-18T14:01:48;24.60;99.90
23731;DHT22;12046;44.702;10.622;2022-08-18T14:04:16;24.50;99.90
23731;DHT22;12046;44.702;10.622;2022-08-18T14:06:43;24.60;99.90
23731;DHT22;12046;44.702;10.622;2022-08-18T14:09:09;24.60;99.90
23731;DHT22;12046;44.702;10.622;2022-08-18T14:11:36;24.50;99.90
23731;DHT22;12046;44.702;10.622;2022-08-18T14:14:04;24.30;99.90
23731;DHT22;12046;44.702;10.622;2022-08-18T14:16:31;24.30;99.90
23731;DHT22;12046;44.702;10.622;2022-08-18T14:18:58;24.40;99.90
23731;DHT22;12046;44.702;10.622;2022-08-18T14:21:45;24.60;99.90
23731;DHT22;12046;44.702;10.622;2022-08-18T14:24:31;24.80;99.90
23731;DHT22;12046;44.702;10.622;2022-08-18T14:27:17;25.10;99.90
23731;DHT22;12046;44.702;10.622;2022-08-18T14:29:44;25.20;99.90
23731;DHT22;12046;44.702;10.622;2022-08-18T14:32:12;25.20;99.90
23731;DHT22;12046;44.702;10.622;2022-08-18T14:34:39;25.40;99.90
23731;DHT22;12046;44.702;10.622;2022-08-18T14:37:05;25.50;99.90
23731;DHT22;12046;44.702;10.622;2022-08-18T14:39:31;25.60;99.90
23731;DHT22;12046;44.702;10.622;2022-08-18T14:41:57;25.70;99.90
23731;DHT22;12046;44.702;10.622;2022-08-18T14:44:24;25.80;99.90
23731;DHT22;12046;44.702;10.622;2022-08-18T14:46:50;26.00;99.90
23731;DHT22;12046;44.702;10.622;2022-08-18T14:49:16;26.20;99.90
23731;DHT22;12046;44.702;10.622;2022-08-18T14:51:42;26.30;99.90
23731;DHT22;12046;44.702;10.622;2022-08-18T14:54:09;26.30;99.90
23731;DHT22;12046;44.702;10.622;2022-08-18T14:56:35;26.20;99.90
23731;DHT22;12046;44.702;10.622;2022-08-18T14:59:02;26.00;99.90
23731;DHT22;12046;44.702;10.622;2022-08-18T15:01:30;26.00;99.90
23731;DHT22;12046;44.702;10.622;2022-08-18T15:03:57;26.10;99.90
23731;DHT22;12046;44.702;10.622;2022-08-18T15:06:22;26.20;99.90
23731;DHT22;12046;44.702;10.622;2022-08-18T15:08:48;26.30;99.90
23731;DHT22;12046;44.702;10.622;2022-08-18T15:11:15;26.30;99.90
23731;DHT22;12046;44.702;10.622;2022-08-18T15:13:42;26.20;99.90
23731;DHT22;12046;44.702;10.622;2022-08-18T15:16:09;26.20;99.90
23731;DHT22;12046;44.702;10.622;2022-08-18T15:18:43;26.30;99.90
23731;DHT22;12046;44.702;10.622;2022-08-18T15:21:09;26.30;99.90
23731;DHT22;12046;44.702;10.622;2022-08-18T15:23:54;26.30;99.90
23731;DHT22;12046;44.702;10.622;2022-08-18T15:26:38;26.40;99.90
23731;DHT22;12046;44.702;10.622;2022-08-18T15:29:05;26.50;99.90
23731;DHT22;12046;44.702;10.622;2022-08-18T15:31:35;26.50;99.90
23731;DHT22;12046;44.702;10.622;2022-08-18T15:34:02;26.60;99.90
23731;DHT22;12046;44.702;10.622;2022-08-18T15:36:29;26.60;99.90
23731;DHT22;12046;44.702;10.622;2022-08-18T15:38:58;26.60;99.90
23731;DHT22;12046;44.702;10.622;2022-08-18T15:43:59;26.60;99.90
23731;DHT22;12046;44.702;10.622;2022-08-18T15:46:26;26.60;99.90
23731;DHT22;12046;44.702;10.622;2022-08-18T15:48:52;26.50;99.90
23731;DHT22;12046;44.702;10.622;2022-08-18T15:51:19;26.50;99.90
23731;DHT22;12046;44.702;10.622;2022-08-18T15:53:45;26.50;99.90
23731;DHT22;12046;44.702;10.622;2022-08-18T15:56:16;26.40;99.90
23731;DHT22;12046;44.702;10.622;2022-08-18T15:58:43;26.30;99.90
23731;DHT22;12046;44.702;10.622;2022-08-18T16:01:13;26.30;99.90
23731;DHT22;12046;44.702;10.622;2022-08-18T16:03:40;26.30;99.90
23731;DHT22;12046;44.702;10.622;2022-08-18T16:06:12;26.30;99.90
23731;DHT22;12046;44.702;10.622;2022-08-18T16:08:39;26.30;99.90
23731;DHT22;12046;44.702;10.622;2022-08-18T16:11:08;26.30;99.90
23731;DHT22;12046;44.702;10.622;2022-08-18T16:13:35;26.10;99.90
23731;DHT22;12046;44.702;10.622;2022-08-18T16:16:09;26.00;99.90
23731;DHT22;12046;44.702;10.622;2022-08-18T16:18:36;25.90;99.90
23731;DHT22;12046;44.702;10.622;2022-08-18T16:21:06;25.90;99.90
23731;DHT22;12046;44.702;10.622;2022-08-18T16:23:48;25.80;99.90
23731;DHT22;12046;44.702;10.622;2022-08-18T16:26:17;25.70;99.90
23731;DHT22;12046;44.702;10.622;2022-08-18T16:28:45;25.70;99.90
23731;DHT22;12046;44.702;10.622;2022-08-18T16:31:12;25.60;99.90
23731;DHT22;12046;44.702;10.622;2022-08-18T16:33:41;25.60;99.90
23731;DHT22;12046;44.702;10.622;2022-08-18T16:36:09;25.60;99.90
23731;DHT22;12046;44.702;10.622;2022-08-18T16:38:37;25.70;99.90
23731;DHT22;12046;44.702;10.622;2022-08-18T16:41:08;25.70;99.90
23731;DHT22;12046;44.702;10.622;2022-08-18T16:43:36;25.70;99.90
23731;DHT22;12046;44.702;10.622;2022-08-18T16:46:03;25.70;99.90
23731;DHT22;12046;44.702;10.622;2022-08-18T16:48:30;25.70;99.90
23731;DHT22;12046;44.702;10.622;2022-08-18T16:50:56;25.70;99.90
23731;DHT22;12046;44.702;10.622;2022-08-18T16:53:22;25.60;99.90
23731;DHT22;12046;44.702;10.622;2022-08-18T16:55:48;25.50;99.90
23731;DHT22;12046;44.702;10.622;2022-08-18T16:58:15;25.40;99.90
23731;DHT22;12046;44.702;10.622;2022-08-18T17:01:00;25.40;99.90
23731;DHT22;12046;44.702;10.622;2022-08-18T17:03:45;25.40;99.90
23731;DHT22;12046;44.702;10.622;2022-08-18T17:06:29;25.40;99.90
23731;DHT22;12046;44.702;10.622;2022-08-18T17:08:56;25.30;99.90
23731;DHT22;12046;44.702;10.622;2022-08-18T17:11:24;25.40;99.90
23731;DHT22;12046;44.702;10.622;2022-08-18T17:13:54;25.30;99.90
23731;DHT22;12046;44.702;10.622;2022-08-18T17:16:22;25.30;99.90
23731;DHT22;12046;44.702;10.622;2022-08-18T17:18:50;25.40;99.90
23731;DHT22;12046;44.702;10.622;2022-08-18T17:21:19;25.30;99.90
23731;DHT22;12046;44.702;10.622;2022-08-18T17:23:47;25.30;99.90
23731;DHT22;12046;44.702;10.622;2022-08-18T17:26:35;25.30;99.90
23731;DHT22;12046;44.702;10.622;2022-08-18T17:31:33;25.30;99.90
23731;DHT22;12046;44.702;10.622;2022-08-18T17:34:07;25.30;99.90
23731;DHT22;12046;44.702;10.622;2022-08-18T17:36:41;25.20;99.90
23731;DHT22;12046;44.702;10.622;2022-08-18T17:39:11;25.20;99.90
23731;DHT22;12046;44.702;10.622;2022-08-18T17:41:40;25.20;99.90
23731;DHT22;12046;44.702;10.622;2022-08-18T17:44:24;25.10;99.90
23731;DHT22;12046;44.702;10.622;2022-08-18T17:46:53;25.10;99.90
23731;DHT22;12046;44.702;10.622;2022-08-18T17:49:43;25.10;99.90
23731;DHT22;12046;44.702;10.622;2022-08-18T17:52:31;25.00;99.90
23731;DHT22;12046;44.702;10.622;2022-08-18T17:55:14;25.00;99.90
23731;DHT22;12046;44.702;10.622;2022-08-18T17:57:59;25.00;99.90
23731;DHT22;12046;44.702;10.622;2022-08-18T18:00:26;25.00;99.90
23731;DHT22;12046;44.702;10.622;2022-08-18T18:02:56;24.90;99.90
23731;DHT22;12046;44.702;10.622;2022-08-18T18:05:22;24.90;99.90
23731;DHT22;12046;44.702;10.622;2022-08-18T18:07:56;24.90;99.90
23731;DHT22;12046;44.702;10.622;2022-08-18T18:10:27;24.90;99.90
23731;DHT22;12046;44.702;10.622;2022-08-18T18:15:46;24.80;99.90
23731;DHT22;12046;44.702;10.622;2022-08-18T18:21:33;24.70;99.90
23731;DHT22;12046;44.702;10.622;2022-08-18T18:24:12;24.70;99.90
23731;DHT22;12046;44.702;10.622;2022-08-18T18:26:45;24.60;99.90
23731;DHT22;12046;44.702;10.622;2022-08-18T18:31:54;24.40;99.90
23731;DHT22;12046;44.702;10.622;2022-08-18T18:34:42;24.40;99.90